LTBI/ESK METAR and TAF weather

Enter ICAO airport designator
Station Type Date Time Source
LTBI METAR 2019/02/17 15:50 UTC NOAA

LTBI 171550Z 25004KT CAVOK 05/M01 Q1022 NOSIG RMK RWY08 26006KT


Station Type Date Time Source
LTBI Decoded METAR 2019/02/17 15:50 UTC NOAA

Eskisehir, Turkey (LTBI) 39-47N 030-34E 785M
Feb 17, 2019 - 10:50 AM EST / 2019.02.17 1550 UTC
Wind: from the WSW (250 degrees) at 5 MPH (4 KT):0
Visibility: greater than 7 mile(s):0
Temperature: 41 F (5 C)
Dew Point: 30 F (-1 C)
Relative Humidity: 65%
Pressure (altimeter): 30.18 in. Hg (1022 hPa)
ob: LTBI 171550Z 25004KT CAVOK 05/M01 Q1022 NOSIG RMK RWY08 26006KT
cycle: 16

Station Type Date Time Source
LTBI TAF 2012/05/11 09:09 UTC NOAA

TAF LTBI 110740Z 1109/1121 VRB02KT 6000 -SHRA BKN030 BKN090
TEMPO 1112/1116 33015KT 4000 -TSRA FEW025CB BKN030


Example: see airport list